createdAt,value
2022-08-05T00:00:21.620Z,23.77
2022-08-05T00:02:50.914Z,23.27
2022-08-05T00:06:02.110Z,22.90
2022-08-05T00:08:32.794Z,21.92
2022-08-05T00:11:00.788Z,21.73
2022-08-05T00:13:38.763Z,21.85
2022-08-05T00:16:10.981Z,22.23
2022-08-05T00:18:42.554Z,20.73
2022-08-05T00:21:12.102Z,20.45
2022-08-05T00:23:46.268Z,21.20
2022-08-05T00:26:16.328Z,21.83
2022-08-05T00:28:43.902Z,22.33
2022-08-05T00:31:13.086Z,19.52
2022-08-05T00:34:55.494Z,20.30
2022-08-05T00:37:09.861Z,20.17
2022-08-05T00:39:14.518Z,21.13
2022-08-05T00:41:55.278Z,22.05
2022-08-05T00:44:31.004Z,22.38
2022-08-05T00:47:02.071Z,20.83
2022-08-05T00:49:44.400Z,20.27
2022-08-05T00:52:18.929Z,19.65
2022-08-05T00:54:56.311Z,21.95
2022-08-05T00:57:25.438Z,20.83
2022-08-05T00:59:58.918Z,21.88
2022-08-05T01:02:25.833Z,20.33
2022-08-05T01:04:52.798Z,22.17
2022-08-05T01:07:19.778Z,20.90
2022-08-05T01:09:47.097Z,21.45
2022-08-05T01:12:24.396Z,21.50
2022-08-05T01:15:06.844Z,20.10
2022-08-05T01:18:01.198Z,20.38
2022-08-05T01:21:00.820Z,20.75
2022-08-05T01:24:01.726Z,20.92
2022-08-05T01:26:58.667Z,20.75
2022-08-05T01:29:43.044Z,21.02
2022-08-05T01:32:18.375Z,21.15
2022-08-05T01:34:50.700Z,19.90
2022-08-05T01:37:44.493Z,20.42
2022-08-05T01:40:17.919Z,18.80
2022-08-05T01:42:47.275Z,19.80
2022-08-05T01:45:16.644Z,21.05
2022-08-05T01:47:45.120Z,21.05
2022-08-05T01:50:20.263Z,21.27
2022-08-05T01:53:02.486Z,20.30
2022-08-05T01:55:36.047Z,20.38
2022-08-05T01:58:12.558Z,20.95
2022-08-05T02:00:49.095Z,21.15
2022-08-05T02:03:29.108Z,20.25
2022-08-05T02:06:33.881Z,21.17
2022-08-05T02:08:57.774Z,20.30
2022-08-05T02:11:32.759Z,20.92
2022-08-05T02:14:14.694Z,21.50
2022-08-05T02:16:52.423Z,19.50
2022-08-05T02:19:28.898Z,20.60
2022-08-05T02:22:27.350Z,20.13
2022-08-05T02:25:02.585Z,20.33
2022-08-05T02:27:57.881Z,20.42
2022-08-05T02:30:26.922Z,19.02
2022-08-05T02:32:56.202Z,20.95
2022-08-05T02:35:33.367Z,20.50
2022-08-05T02:38:09.512Z,20.20
2022-08-05T02:40:41.183Z,20.50
2022-08-05T02:43:10.987Z,20.92
2022-08-05T02:45:52.866Z,21.05
2022-08-05T02:48:29.665Z,21.40
2022-08-05T02:51:05.685Z,20.38
2022-08-05T02:53:39.163Z,21.20
2022-08-05T02:56:09.608Z,21.05
2022-08-05T02:58:44.819Z,19.85
2022-08-05T03:01:23.423Z,22.58
2022-08-05T03:04:02.764Z,19.67
2022-08-05T03:06:55.156Z,20.42
2022-08-05T03:09:36.267Z,21.65
2022-08-05T03:12:06.550Z,19.70
2022-08-05T03:14:35.445Z,20.42
2022-08-05T03:17:12.958Z,21.08
2022-08-05T03:19:39.942Z,21.55
2022-08-05T03:22:16.457Z,22.15
2022-08-05T03:24:51.040Z,20.48
2022-08-05T03:27:22.955Z,21.75
2022-08-05T03:30:07.305Z,21.23
2022-08-05T03:32:36.721Z,21.70
2022-08-05T03:35:04.530Z,21.58
2022-08-05T03:37:46.152Z,21.55
2022-08-05T03:40:15.317Z,21.35
2022-08-05T03:42:52.799Z,21.35
2022-08-05T03:45:21.585Z,23.48
2022-08-05T03:47:51.145Z,22.35
2022-08-05T03:50:18.426Z,21.73
2022-08-05T03:55:49.991Z,21.20
2022-08-05T03:56:11.921Z,21.80
2022-08-05T03:58:41.110Z,22.00
2022-08-05T04:01:11.218Z,21.58
2022-08-05T04:03:56.945Z,22.08
2022-08-05T04:06:30.382Z,21.60
2022-08-05T04:08:58.782Z,21.88
2022-08-05T04:11:47.304Z,21.77
2022-08-05T04:16:45.310Z,20.02
2022-08-05T04:19:13.292Z,22.50
2022-08-05T04:22:09.509Z,22.23
2022-08-05T04:24:28.315Z,22.85
2022-08-05T04:26:58.211Z,21.48
2022-08-05T04:29:27.169Z,21.80
2022-08-05T04:31:54.380Z,22.42
2022-08-05T04:34:33.643Z,22.98
2022-08-05T04:37:04.090Z,21.40
2022-08-05T04:39:32.434Z,21.92
2022-08-05T04:42:03.796Z,21.17
2022-08-05T04:44:30.890Z,21.30
2022-08-05T04:47:09.744Z,21.02
2022-08-05T04:50:02.866Z,20.95
2022-08-05T04:52:27.708Z,21.02
2022-08-05T04:54:57.289Z,21.60
2022-08-05T04:57:29.257Z,21.90
2022-08-05T04:59:58.391Z,21.17
2022-08-05T05:02:41.255Z,19.27
2022-08-05T05:05:16.987Z,18.98
2022-08-05T05:08:29.984Z,19.90
2022-08-05T05:10:57.562Z,19.33
2022-08-05T05:13:24.555Z,18.60
2022-08-05T05:15:57.320Z,18.70
2022-08-05T05:18:33.340Z,20.77
2022-08-05T05:21:03.233Z,18.73
2022-08-05T05:24:01.876Z,19.58
2022-08-05T05:26:17.708Z,17.25
2022-08-05T05:28:45.336Z,18.25
2022-08-05T05:31:12.839Z,18.80
2022-08-05T05:33:59.872Z,18.35
2022-08-05T05:36:28.306Z,19.08
2022-08-05T05:38:57.314Z,18.75
2022-08-05T05:41:24.936Z,18.50
2022-08-05T05:43:57.084Z,18.48
2022-08-05T05:46:27.162Z,17.52
2022-08-05T05:48:54.229Z,18.38
2022-08-05T05:51:25.891Z,17.65
2022-08-05T05:53:59.517Z,17.90
2022-08-05T05:56:32.198Z,17.33
2022-08-05T05:59:06.807Z,18.10
2022-08-05T06:01:37.506Z,17.88
2022-08-05T06:04:12.679Z,18.15
2022-08-05T06:06:47.607Z,16.40
2022-08-05T06:09:36.282Z,17.25
2022-08-05T06:12:04.561Z,17.02
2022-08-05T06:14:32.241Z,16.33
2022-08-05T06:17:01.928Z,14.95
2022-08-05T06:19:56.927Z,16.10
2022-08-05T06:22:33.449Z,14.82
2022-08-05T06:25:58.975Z,15.57
2022-08-05T06:28:11.466Z,15.30
2022-08-05T06:30:37.342Z,15.45
2022-08-05T06:33:04.302Z,14.35
2022-08-05T06:36:07.851Z,13.73
2022-08-05T06:41:04.428Z,12.32
2022-08-05T06:43:58.516Z,12.75
2022-08-05T06:48:55.335Z,11.52
2022-08-05T06:51:30.255Z,11.55
2022-08-05T06:54:03.391Z,11.63
2022-08-05T06:56:34.261Z,12.05
2022-08-05T06:59:03.945Z,11.85
2022-08-05T07:01:36.484Z,11.77
2022-08-05T07:04:04.211Z,11.68
2022-08-05T07:06:31.907Z,11.38
2022-08-05T07:09:03.959Z,10.73
2022-08-05T07:11:33.136Z,10.93
2022-08-05T07:14:29.704Z,10.10
2022-08-05T07:17:58.679Z,9.40
2022-08-05T07:22:37.817Z,8.63
2022-08-05T07:25:24.079Z,9.27
2022-08-05T07:27:58.828Z,9.02
2022-08-05T07:30:33.150Z,8.73
2022-08-05T07:33:05.171Z,8.15
2022-08-05T07:36:01.693Z,9.23
2022-08-05T07:38:32.710Z,8.10
2022-08-05T07:42:09.013Z,8.95
2022-08-05T07:43:52.793Z,8.15
2022-08-05T07:46:25.207Z,8.13
2022-08-05T07:49:02.777Z,8.10
2022-08-05T07:51:36.625Z,7.50
2022-08-05T07:54:05.686Z,7.35
2022-08-05T07:56:59.865Z,7.95
2022-08-05T07:59:30.983Z,7.25
2022-08-05T08:02:07.357Z,8.95
2022-08-05T08:04:44.900Z,7.50
2022-08-05T08:07:13.180Z,7.82
2022-08-05T08:09:40.329Z,7.22
2022-08-05T08:12:35.611Z,7.57
2022-08-05T08:14:54.506Z,7.72
2022-08-05T08:17:21.794Z,8.00
2022-08-05T08:20:22.391Z,7.78
2022-08-05T08:22:36.284Z,7.95
2022-08-05T08:25:16.358Z,8.02
2022-08-05T08:27:47.545Z,7.47
2022-08-05T08:30:29.727Z,7.53
2022-08-05T08:33:04.432Z,7.43
2022-08-05T08:35:41.391Z,7.70
2022-08-05T08:38:35.425Z,8.05
2022-08-05T08:41:10.658Z,7.10
2022-08-05T08:45:24.311Z,7.65
2022-08-05T08:46:32.320Z,6.43
2022-08-05T08:50:22.470Z,6.63
2022-08-05T08:52:04.128Z,7.18
2022-08-05T08:54:42.217Z,6.55
2022-08-05T08:57:11.458Z,7.57
2022-08-05T08:59:41.962Z,8.02
2022-08-05T09:02:16.646Z,7.20
2022-08-05T09:04:58.338Z,6.65
2022-08-05T09:07:56.002Z,6.75
2022-08-05T09:10:21.917Z,6.40
2022-08-05T09:12:55.906Z,6.97
2022-08-05T09:15:23.479Z,7.43
2022-08-05T09:17:53.025Z,7.15
2022-08-05T09:20:36.484Z,7.32
2022-08-05T09:23:09.182Z,7.70
2022-08-05T09:26:01.915Z,7.45
2022-08-05T09:28:31.446Z,7.10
2022-08-05T09:31:22.093Z,6.93
2022-08-05T09:33:59.081Z,7.55
2022-08-05T09:39:41.280Z,6.90
2022-08-05T09:42:22.997Z,7.13
2022-08-05T09:44:56.491Z,7.90
2022-08-05T09:47:29.678Z,7.43
2022-08-05T09:50:13.760Z,7.50
2022-08-05T09:52:45.926Z,7.40
2022-08-05T09:55:56.675Z,7.80
2022-08-05T09:58:10.197Z,7.72
2022-08-05T10:00:38.419Z,7.60
2022-08-05T10:03:11.772Z,7.70
2022-08-05T10:05:41.851Z,8.10
2022-08-05T10:08:34.948Z,7.75
2022-08-05T10:10:55.944Z,7.80
2022-08-05T10:13:46.283Z,7.20
2022-08-05T10:16:41.893Z,8.23
2022-08-05T10:19:23.528Z,8.48
2022-08-05T10:21:59.441Z,8.07
2022-08-05T10:24:27.371Z,8.23
2022-08-05T10:27:00.608Z,8.02
2022-08-05T10:30:07.180Z,7.90
2022-08-05T10:32:53.120Z,8.20
2022-08-05T10:35:04.346Z,9.27
2022-08-05T10:37:40.302Z,9.25
2022-08-05T10:40:35.797Z,8.77
2022-08-05T10:43:49.010Z,8.05
2022-08-05T10:46:18.797Z,9.05
2022-08-05T10:49:01.440Z,7.90
2022-08-05T10:51:57.708Z,8.30
2022-08-05T10:55:02.586Z,8.43
2022-08-05T10:57:32.473Z,8.00
2022-08-05T11:00:20.231Z,8.07
2022-08-05T11:03:23.410Z,8.10
2022-08-05T11:06:15.326Z,8.02
2022-08-05T11:09:24.456Z,8.45
2022-08-05T11:12:26.642Z,8.18
2022-08-05T11:15:20.143Z,8.40
2022-08-05T11:18:09.562Z,8.32
2022-08-05T11:20:43.837Z,8.43
2022-08-05T11:24:05.259Z,8.48
2022-08-05T11:26:32.932Z,8.25
2022-08-05T11:29:13.175Z,8.25
2022-08-05T11:31:54.420Z,8.23
2022-08-05T11:34:37.788Z,8.38
2022-08-05T11:37:55.151Z,7.90
2022-08-05T11:39:55.350Z,8.40
2022-08-05T11:42:28.288Z,7.75
2022-08-05T11:45:03.259Z,7.78
2022-08-05T11:47:49.789Z,7.75
2022-08-05T11:50:18.245Z,8.27
2022-08-05T11:52:46.162Z,7.93
2022-08-05T11:55:16.654Z,7.72
2022-08-05T11:58:09.469Z,8.02
2022-08-05T12:00:38.414Z,7.68
2022-08-05T12:03:28.764Z,7.07
2022-08-05T12:06:05.909Z,7.47
2022-08-05T12:08:33.888Z,7.68
2022-08-05T12:11:05.918Z,7.57
2022-08-05T12:13:48.628Z,7.80
2022-08-05T12:16:25.397Z,6.90
2022-08-05T12:18:53.656Z,6.60
2022-08-05T12:21:29.845Z,7.55
2022-08-05T12:24:09.399Z,7.68
2022-08-05T12:26:39.205Z,7.47
2022-08-05T12:29:16.136Z,7.05
2022-08-05T12:31:53.821Z,6.40
2022-08-05T12:34:28.723Z,6.78
2022-08-05T12:36:58.362Z,7.45
2022-08-05T12:39:34.366Z,7.28
2022-08-05T12:42:18.103Z,7.00
2022-08-05T12:44:47.634Z,7.00
2022-08-05T12:47:28.796Z,6.75
2022-08-05T12:50:03.593Z,7.05
2022-08-05T12:52:39.293Z,7.10
2022-08-05T12:58:52.625Z,6.85
2022-08-05T13:02:02.134Z,6.75
2022-08-05T13:03:32.270Z,7.18
2022-08-05T13:06:01.555Z,7.97
2022-08-05T13:08:32.108Z,7.20
2022-08-05T13:11:02.464Z,7.28
2022-08-05T13:14:06.601Z,7.38
2022-08-05T13:16:20.830Z,7.55
2022-08-05T13:18:58.378Z,7.40
2022-08-05T13:21:28.457Z,7.57
2022-08-05T13:24:08.825Z,7.18
2022-08-05T13:26:36.293Z,7.60
2022-08-05T13:29:05.234Z,7.43
2022-08-05T13:32:03.498Z,7.70
2022-08-05T13:34:22.502Z,7.40
2022-08-05T13:36:53.256Z,6.57
2022-08-05T13:39:24.592Z,6.40
2022-08-05T13:42:14.757Z,6.57
2022-08-05T13:44:45.846Z,6.65
2022-08-05T13:47:34.843Z,6.20
2022-08-05T13:50:04.415Z,7.18
2022-08-05T13:52:35.211Z,6.60
2022-08-05T13:55:07.606Z,6.60
2022-08-05T13:57:48.523Z,6.82
2022-08-05T14:00:27.271Z,7.13
2022-08-05T14:05:48.188Z,6.75
2022-08-05T14:08:21.168Z,6.70
2022-08-05T14:11:03.244Z,6.75
2022-08-05T14:13:42.309Z,6.55
2022-08-05T14:16:11.545Z,6.38
2022-08-05T14:18:43.689Z,6.57
2022-08-05T14:22:07.325Z,6.93
2022-08-05T14:23:57.876Z,6.50
2022-08-05T14:26:36.775Z,6.82
2022-08-05T14:29:16.710Z,6.13
2022-08-05T14:32:03.582Z,6.75
2022-08-05T14:34:35.346Z,6.43
2022-08-05T14:37:04.819Z,6.40
2022-08-05T14:39:50.214Z,6.53
2022-08-05T14:42:21.795Z,6.90
2022-08-05T14:44:49.523Z,8.32
2022-08-05T14:47:17.115Z,6.65
2022-08-05T14:50:18.285Z,6.32
2022-08-05T14:52:58.355Z,6.57
2022-08-05T14:55:38.683Z,6.45
2022-08-05T14:58:10.827Z,6.82
2022-08-05T15:00:58.800Z,7.10
2022-08-05T15:03:33.389Z,6.53
2022-08-05T15:06:15.048Z,6.65
2022-08-05T15:09:01.448Z,6.95
2022-08-05T15:11:51.920Z,6.55
2022-08-05T15:14:34.447Z,6.60
2022-08-05T15:17:05.501Z,5.82
2022-08-05T15:19:52.544Z,6.88
2022-08-05T15:22:22.452Z,6.43
2022-08-05T15:24:55.108Z,6.53
2022-08-05T15:27:22.088Z,7.03
2022-08-05T15:29:54.202Z,7.47
2022-08-05T15:32:27.374Z,7.25
2022-08-05T15:34:57.166Z,7.10
2022-08-05T15:38:31.749Z,6.65
2022-08-05T15:41:00.647Z,6.45
2022-08-05T15:43:10.877Z,6.68
2022-08-05T15:45:45.924Z,7.50
2022-08-05T15:48:15.193Z,6.80
2022-08-05T15:50:43.544Z,6.65
2022-08-05T15:53:13.063Z,6.53
2022-08-05T15:56:03.072Z,6.30
2022-08-05T15:58:35.715Z,6.20
2022-08-05T16:01:17.441Z,6.63
2022-08-05T16:03:48.315Z,7.10
2022-08-05T16:06:20.245Z,7.65
2022-08-05T16:08:50.847Z,7.53
2022-08-05T16:11:18.663Z,7.45
2022-08-05T16:13:48.594Z,7.05
2022-08-05T16:16:25.095Z,6.90
2022-08-05T16:18:53.123Z,7.82
2022-08-05T16:21:20.808Z,7.50
2022-08-05T16:24:12.709Z,7.60
2022-08-05T16:26:57.211Z,6.75
2022-08-05T16:29:25.959Z,6.85
2022-08-05T16:31:56.282Z,6.70
2022-08-05T16:34:25.806Z,6.85
2022-08-05T16:36:55.052Z,7.22
2022-08-05T16:39:22.979Z,6.53
2022-08-05T16:42:14.484Z,7.72
2022-08-05T16:44:44.222Z,11.40
2022-08-05T16:47:28.536Z,8.32
2022-08-05T16:49:58.491Z,7.47
2022-08-05T16:52:30.779Z,8.18
2022-08-05T16:55:00.754Z,7.47
2022-08-05T16:57:50.471Z,7.40
2022-08-05T17:00:25.913Z,6.95
2022-08-05T17:03:15.422Z,6.95
2022-08-05T17:05:54.047Z,7.82
2022-08-05T17:08:51.888Z,7.18
2022-08-05T17:11:17.457Z,7.78
2022-08-05T17:13:45.622Z,8.13
2022-08-05T17:16:29.819Z,8.02
2022-08-05T17:18:59.953Z,7.57
2022-08-05T17:21:35.325Z,8.98
2022-08-05T17:24:18.481Z,7.95
2022-08-05T17:26:52.938Z,7.72
2022-08-05T17:29:22.362Z,7.82
2022-08-05T17:31:58.383Z,7.93
2022-08-05T17:34:29.756Z,8.45
2022-08-05T17:36:57.404Z,8.18
2022-08-05T17:39:33.590Z,7.90
2022-08-05T17:42:18.474Z,8.07
2022-08-05T17:44:50.435Z,8.23
2022-08-05T17:47:21.900Z,7.90
2022-08-05T17:49:52.022Z,7.60
2022-08-05T17:52:31.110Z,8.20
2022-08-05T17:54:58.226Z,8.13
2022-08-05T17:57:25.213Z,9.32
2022-08-05T18:00:03.639Z,8.25
2022-08-05T18:02:34.219Z,9.00
2022-08-05T18:05:06.274Z,8.70
2022-08-05T18:07:41.657Z,8.85
2022-08-05T18:10:20.436Z,9.10
2022-08-05T18:12:49.695Z,9.13
2022-08-05T18:15:16.762Z,9.25
2022-08-05T18:17:58.712Z,9.75
2022-08-05T18:20:31.607Z,9.93
2022-08-05T18:23:09.509Z,9.10
2022-08-05T18:25:45.303Z,9.90
2022-08-05T18:28:17.673Z,10.18
2022-08-05T18:30:51.353Z,10.27
2022-08-05T18:33:22.614Z,9.70
2022-08-05T18:36:04.256Z,10.65
2022-08-05T18:38:37.614Z,11.05
2022-08-05T18:41:56.219Z,10.23
2022-08-05T18:43:54.701Z,10.65
2022-08-05T18:46:25.906Z,10.23
2022-08-05T18:48:55.994Z,11.10
2022-08-05T18:52:06.034Z,10.90
2022-08-05T18:54:35.083Z,10.65
2022-08-05T18:57:02.838Z,11.48
2022-08-05T18:59:43.267Z,10.80
2022-08-05T19:02:26.435Z,11.23
2022-08-05T19:05:02.228Z,11.40
2022-08-05T19:07:46.097Z,10.85
2022-08-05T19:10:18.779Z,10.77
2022-08-05T19:12:53.864Z,11.75
2022-08-05T19:15:56.885Z,11.23
2022-08-05T19:18:10.694Z,11.40
2022-08-05T19:20:46.726Z,10.57
2022-08-05T19:24:03.523Z,11.68
2022-08-05T19:26:03.005Z,11.65
2022-08-05T19:28:32.871Z,12.43
2022-08-05T19:31:01.002Z,11.88
2022-08-05T19:33:35.937Z,11.48
2022-08-05T19:36:06.368Z,11.55
2022-08-05T19:38:37.132Z,11.25
2022-08-05T19:41:07.157Z,11.27
2022-08-05T19:44:07.072Z,11.05
2022-08-05T19:46:29.366Z,11.25
2022-08-05T19:49:01.186Z,11.20
2022-08-05T19:52:04.552Z,11.52
2022-08-05T19:54:29.395Z,12.23
2022-08-05T19:57:02.256Z,12.35
2022-08-05T19:59:55.576Z,11.65
2022-08-05T20:02:18.169Z,11.35
2022-08-05T20:04:48.279Z,10.98
2022-08-05T20:07:15.908Z,11.20
2022-08-05T20:10:13.596Z,11.43
2022-08-05T20:12:47.597Z,10.82
2022-08-05T20:15:23.030Z,10.88
2022-08-05T20:18:10.569Z,10.88
2022-08-05T20:20:56.100Z,11.35
2022-08-05T20:23:38.783Z,11.25
2022-08-05T20:26:16.259Z,11.30
2022-08-05T20:31:36.836Z,10.55
2022-08-05T20:36:39.056Z,10.88
2022-08-05T20:39:10.304Z,10.20
2022-08-05T20:41:44.278Z,11.10
2022-08-05T20:44:17.445Z,11.55
2022-08-05T20:46:48.179Z,11.75
2022-08-05T20:49:15.433Z,10.82
2022-08-05T20:51:53.341Z,11.85
2022-08-05T20:54:22.650Z,12.38
2022-08-05T20:56:53.102Z,12.05
2022-08-05T20:59:26.901Z,11.27
2022-08-05T21:02:07.745Z,11.63
2022-08-05T21:04:36.434Z,11.38
2022-08-05T21:07:04.955Z,11.30
2022-08-05T21:09:35.412Z,12.25
2022-08-05T21:12:09.120Z,12.15
2022-08-05T21:14:38.849Z,12.38
2022-08-05T21:17:06.282Z,12.10
2022-08-05T21:19:47.122Z,11.13
2022-08-05T21:22:21.628Z,11.88
2022-08-05T21:24:51.553Z,11.63
2022-08-05T21:27:25.338Z,12.77
2022-08-05T21:29:56.465Z,17.23
2022-08-05T21:32:26.648Z,12.60
2022-08-05T21:35:17.728Z,12.57
2022-08-05T21:37:47.207Z,12.45
2022-08-05T21:40:23.911Z,12.82
2022-08-05T21:42:53.589Z,12.90
2022-08-05T21:45:51.488Z,13.43
2022-08-05T21:48:11.248Z,13.27
2022-08-05T21:50:53.059Z,13.85
2022-08-05T21:53:21.770Z,12.95
2022-08-05T21:56:05.571Z,12.48
2022-08-05T21:58:42.006Z,12.23
2022-08-05T22:01:10.816Z,12.68
2022-08-05T22:03:49.088Z,13.45
2022-08-05T22:06:34.802Z,12.65
2022-08-05T22:09:13.256Z,12.50
2022-08-05T22:11:43.353Z,12.40
2022-08-05T22:14:35.043Z,13.02
2022-08-05T22:17:03.805Z,12.73
2022-08-05T22:20:00.389Z,13.30
2022-08-05T22:22:26.695Z,12.57
2022-08-05T22:25:21.873Z,13.57
2022-08-05T22:28:11.418Z,12.88
2022-08-05T22:30:55.770Z,12.85
2022-08-05T22:33:58.343Z,13.00
2022-08-05T22:36:15.564Z,13.43
2022-08-05T22:38:48.580Z,13.10
2022-08-05T22:42:05.694Z,13.45
2022-08-05T22:44:08.528Z,12.52
2022-08-05T22:46:39.957Z,14.25
2022-08-05T22:49:12.413Z,12.98
2022-08-05T22:52:04.579Z,13.82
2022-08-05T22:54:33.898Z,13.73
2022-08-05T22:57:00.889Z,13.25
2022-08-05T22:59:47.356Z,13.43
2022-08-05T23:02:18.109Z,13.68
2022-08-05T23:04:52.195Z,14.95
2022-08-05T23:07:22.059Z,13.88
2022-08-05T23:09:57.531Z,13.40
2022-08-05T23:12:32.907Z,13.57
2022-08-05T23:15:09.112Z,13.02
2022-08-05T23:17:59.874Z,13.18
2022-08-05T23:20:24.544Z,12.30
2022-08-05T23:22:55.865Z,12.88
2022-08-05T23:25:53.470Z,13.10
2022-08-05T23:28:11.485Z,13.32
2022-08-05T23:30:40.258Z,13.43
2022-08-05T23:33:16.461Z,14.20
2022-08-05T23:35:50.937Z,15.93
2022-08-05T23:38:18.221Z,13.93
2022-08-05T23:40:49.901Z,15.10
2022-08-05T23:43:25.047Z,13.32
2022-08-05T23:46:19.573Z,13.88
2022-08-05T23:48:46.686Z,13.70
2022-08-05T23:51:53.444Z,14.57
2022-08-05T23:54:26.451Z,14.38
2022-08-05T23:57:03.690Z,14.05
